sensor_id;sensor_type;location;lat;lon;timestamp;P1;durP1;ratioP1;P2;durP2;ratioP2
75626;SDS011;67372;49.404;11.034;2023-03-11T00:00:12;1.40;;;0.80;;
75626;SDS011;67372;49.404;11.034;2023-03-11T00:02:40;1.83;;;0.70;;
75626;SDS011;67372;49.404;11.034;2023-03-11T00:05:07;1.13;;;1.00;;
75626;SDS011;67372;49.404;11.034;2023-03-11T00:07:34;0.75;;;0.52;;
75626;SDS011;67372;49.404;11.034;2023-03-11T00:10:00;1.42;;;1.00;;
75626;SDS011;67372;49.404;11.034;2023-03-11T00:12:26;1.15;;;0.93;;
75626;SDS011;67372;49.404;11.034;2023-03-11T00:14:53;1.00;;;0.60;;
75626;SDS011;67372;49.404;11.034;2023-03-11T00:17:19;1.70;;;0.60;;
75626;SDS011;67372;49.404;11.034;2023-03-11T00:19:45;1.17;;;0.70;;
75626;SDS011;67372;49.404;11.034;2023-03-11T00:22:12;3.05;;;0.75;;
75626;SDS011;67372;49.404;11.034;2023-03-11T00:24:38;1.42;;;0.80;;
75626;SDS011;67372;49.404;11.034;2023-03-11T00:27:04;0.90;;;0.70;;
75626;SDS011;67372;49.404;11.034;2023-03-11T00:29:31;1.13;;;0.70;;
75626;SDS011;67372;49.404;11.034;2023-03-11T00:31:57;0.93;;;0.60;;
75626;SDS011;67372;49.404;11.034;2023-03-11T00:34:24;0.88;;;0.70;;
75626;SDS011;67372;49.404;11.034;2023-03-11T00:36:50;0.68;;;0.50;;
75626;SDS011;67372;49.404;11.034;2023-03-11T00:39:16;0.70;;;0.55;;
75626;SDS011;67372;49.404;11.034;2023-03-11T00:41:42;1.13;;;0.63;;
75626;SDS011;67372;49.404;11.034;2023-03-11T00:44:09;1.13;;;0.90;;
75626;SDS011;67372;49.404;11.034;2023-03-11T00:46:35;1.75;;;0.70;;
75626;SDS011;67372;49.404;11.034;2023-03-11T00:49:02;1.00;;;0.60;;
75626;SDS011;67372;49.404;11.034;2023-03-11T00:51:28;1.08;;;0.70;;
75626;SDS011;67372;49.404;11.034;2023-03-11T00:53:56;1.58;;;0.70;;
75626;SDS011;67372;49.404;11.034;2023-03-11T00:56:22;1.58;;;0.90;;
75626;SDS011;67372;49.404;11.034;2023-03-11T00:58:48;0.82;;;0.47;;
75626;SDS011;67372;49.404;11.034;2023-03-11T01:01:16;1.27;;;0.82;;
75626;SDS011;67372;49.404;11.034;2023-03-11T01:03:44;2.03;;;0.63;;
75626;SDS011;67372;49.404;11.034;2023-03-11T01:06:11;1.08;;;0.85;;
75626;SDS011;67372;49.404;11.034;2023-03-11T01:08:38;0.73;;;0.60;;
75626;SDS011;67372;49.404;11.034;2023-03-11T01:11:05;1.40;;;0.73;;
75626;SDS011;67372;49.404;11.034;2023-03-11T01:13:32;0.95;;;0.63;;
75626;SDS011;67372;49.404;11.034;2023-03-11T01:15:59;0.77;;;0.70;;
75626;SDS011;67372;49.404;11.034;2023-03-11T01:18:26;0.90;;;0.60;;
75626;SDS011;67372;49.404;11.034;2023-03-11T01:20:53;1.08;;;0.73;;
75626;SDS011;67372;49.404;11.034;2023-03-11T01:23:20;0.82;;;0.52;;
75626;SDS011;67372;49.404;11.034;2023-03-11T01:25:46;0.80;;;0.52;;
75626;SDS011;67372;49.404;11.034;2023-03-11T01:28:13;0.70;;;0.60;;
75626;SDS011;67372;49.404;11.034;2023-03-11T01:30:39;1.23;;;0.80;;
75626;SDS011;67372;49.404;11.034;2023-03-11T01:33:07;0.80;;;0.45;;
75626;SDS011;67372;49.404;11.034;2023-03-11T01:35:38;1.10;;;0.60;;
75626;SDS011;67372;49.404;11.034;2023-03-11T01:38:04;1.10;;;0.68;;
75626;SDS011;67372;49.404;11.034;2023-03-11T01:40:33;0.80;;;0.80;;
75626;SDS011;67372;49.404;11.034;2023-03-11T01:43:02;1.35;;;0.77;;
75626;SDS011;67372;49.404;11.034;2023-03-11T01:48:15;0.95;;;0.75;;
75626;SDS011;67372;49.404;11.034;2023-03-11T01:50:42;1.00;;;0.80;;
75626;SDS011;67372;49.404;11.034;2023-03-11T01:53:12;1.10;;;1.00;;
75626;SDS011;67372;49.404;11.034;2023-03-11T01:55:40;1.48;;;0.73;;
75626;SDS011;67372;49.404;11.034;2023-03-11T01:58:10;0.80;;;0.68;;
75626;SDS011;67372;49.404;11.034;2023-03-11T02:00:41;1.70;;;0.80;;
75626;SDS011;67372;49.404;11.034;2023-03-11T02:03:10;0.80;;;0.63;;
75626;SDS011;67372;49.404;11.034;2023-03-11T02:05:42;1.95;;;1.00;;
75626;SDS011;67372;49.404;11.034;2023-03-11T02:08:10;1.20;;;0.80;;
75626;SDS011;67372;49.404;11.034;2023-03-11T02:10:37;1.63;;;1.00;;
75626;SDS011;67372;49.404;11.034;2023-03-11T02:13:06;1.50;;;1.17;;
75626;SDS011;67372;49.404;11.034;2023-03-11T02:15:32;2.78;;;1.33;;
75626;SDS011;67372;49.404;11.034;2023-03-11T02:18:00;1.02;;;0.77;;
75626;SDS011;67372;49.404;11.034;2023-03-11T02:25:39;1.63;;;0.90;;
75626;SDS011;67372;49.404;11.034;2023-03-11T02:28:11;1.90;;;0.95;;
75626;SDS011;67372;49.404;11.034;2023-03-11T02:30:40;0.68;;;0.65;;
75626;SDS011;67372;49.404;11.034;2023-03-11T02:33:07;1.17;;;0.93;;
75626;SDS011;67372;49.404;11.034;2023-03-11T02:35:35;1.63;;;1.15;;
75626;SDS011;67372;49.404;11.034;2023-03-11T02:38:01;1.30;;;1.00;;
75626;SDS011;67372;49.404;11.034;2023-03-11T02:40:39;1.42;;;0.73;;
75626;SDS011;67372;49.404;11.034;2023-03-11T02:43:14;1.30;;;0.88;;
75626;SDS011;67372;49.404;11.034;2023-03-11T02:45:43;1.80;;;0.98;;
75626;SDS011;67372;49.404;11.034;2023-03-11T02:48:11;1.55;;;1.42;;
75626;SDS011;67372;49.404;11.034;2023-03-11T02:50:39;1.05;;;0.85;;
75626;SDS011;67372;49.404;11.034;2023-03-11T02:53:06;0.88;;;0.80;;
75626;SDS011;67372;49.404;11.034;2023-03-11T02:55:33;1.85;;;1.40;;
75626;SDS011;67372;49.404;11.034;2023-03-11T02:57:59;1.25;;;1.15;;
75626;SDS011;67372;49.404;11.034;2023-03-11T03:00:26;1.13;;;0.93;;
75626;SDS011;67372;49.404;11.034;2023-03-11T03:02:52;1.27;;;1.08;;
75626;SDS011;67372;49.404;11.034;2023-03-11T03:05:19;1.35;;;0.80;;
75626;SDS011;67372;49.404;11.034;2023-03-11T03:07:47;1.15;;;0.80;;
75626;SDS011;67372;49.404;11.034;2023-03-11T03:10:15;1.30;;;1.10;;
75626;SDS011;67372;49.404;11.034;2023-03-11T03:12:42;1.55;;;0.95;;
75626;SDS011;67372;49.404;11.034;2023-03-11T03:15:09;2.90;;;1.02;;
75626;SDS011;67372;49.404;11.034;2023-03-11T03:17:36;1.30;;;0.85;;
75626;SDS011;67372;49.404;11.034;2023-03-11T03:20:03;1.10;;;1.00;;
75626;SDS011;67372;49.404;11.034;2023-03-11T03:22:30;1.70;;;0.88;;
75626;SDS011;67372;49.404;11.034;2023-03-11T03:24:57;1.80;;;1.33;;
75626;SDS011;67372;49.404;11.034;2023-03-11T03:27:23;1.65;;;0.95;;
75626;SDS011;67372;49.404;11.034;2023-03-11T03:29:49;1.10;;;1.00;;
75626;SDS011;67372;49.404;11.034;2023-03-11T03:32:16;1.42;;;0.73;;
75626;SDS011;67372;49.404;11.034;2023-03-11T03:34:42;1.55;;;0.65;;
75626;SDS011;67372;49.404;11.034;2023-03-11T03:37:08;1.48;;;1.00;;
75626;SDS011;67372;49.404;11.034;2023-03-11T03:39:35;1.10;;;0.77;;
75626;SDS011;67372;49.404;11.034;2023-03-11T03:42:01;1.65;;;0.80;;
75626;SDS011;67372;49.404;11.034;2023-03-11T03:44:27;0.98;;;0.88;;
75626;SDS011;67372;49.404;11.034;2023-03-11T03:46:54;1.10;;;0.80;;
75626;SDS011;67372;49.404;11.034;2023-03-11T03:49:20;2.55;;;1.30;;
75626;SDS011;67372;49.404;11.034;2023-03-11T03:51:46;1.95;;;1.00;;
75626;SDS011;67372;49.404;11.034;2023-03-11T03:54:13;1.25;;;0.75;;
75626;SDS011;67372;49.404;11.034;2023-03-11T03:56:40;0.95;;;0.85;;
75626;SDS011;67372;49.404;11.034;2023-03-11T03:59:06;1.05;;;0.82;;
75626;SDS011;67372;49.404;11.034;2023-03-11T04:01:32;3.45;;;1.10;;
75626;SDS011;67372;49.404;11.034;2023-03-11T04:03:59;0.65;;;0.65;;
75626;SDS011;67372;49.404;11.034;2023-03-11T04:06:26;1.92;;;0.95;;
75626;SDS011;67372;49.404;11.034;2023-03-11T04:08:53;0.95;;;0.75;;
75626;SDS011;67372;49.404;11.034;2023-03-11T04:11:20;0.85;;;0.60;;
75626;SDS011;67372;49.404;11.034;2023-03-11T04:13:47;1.55;;;0.80;;
75626;SDS011;67372;49.404;11.034;2023-03-11T04:16:16;2.08;;;0.70;;
75626;SDS011;67372;49.404;11.034;2023-03-11T04:18:45;0.90;;;0.70;;
75626;SDS011;67372;49.404;11.034;2023-03-11T04:21:11;2.65;;;0.98;;
75626;SDS011;67372;49.404;11.034;2023-03-11T04:23:38;1.10;;;0.68;;
75626;SDS011;67372;49.404;11.034;2023-03-11T04:26:04;0.98;;;0.70;;
75626;SDS011;67372;49.404;11.034;2023-03-11T04:28:31;1.67;;;0.70;;
75626;SDS011;67372;49.404;11.034;2023-03-11T04:30:58;1.08;;;0.70;;
75626;SDS011;67372;49.404;11.034;2023-03-11T04:33:24;0.60;;;0.52;;
75626;SDS011;67372;49.404;11.034;2023-03-11T04:35:50;2.13;;;0.80;;
75626;SDS011;67372;49.404;11.034;2023-03-11T04:38:17;1.05;;;0.50;;
75626;SDS011;67372;49.404;11.034;2023-03-11T04:40:43;2.35;;;0.52;;
75626;SDS011;67372;49.404;11.034;2023-03-11T04:43:09;1.35;;;0.90;;
75626;SDS011;67372;49.404;11.034;2023-03-11T04:45:39;1.88;;;0.60;;
75626;SDS011;67372;49.404;11.034;2023-03-11T04:48:07;0.38;;;0.38;;
75626;SDS011;67372;49.404;11.034;2023-03-11T04:50:33;1.13;;;0.63;;
75626;SDS011;67372;49.404;11.034;2023-03-11T04:53:00;0.73;;;0.73;;
75626;SDS011;67372;49.404;11.034;2023-03-11T04:55:26;1.80;;;0.52;;
75626;SDS011;67372;49.404;11.034;2023-03-11T04:57:53;1.63;;;0.80;;
75626;SDS011;67372;49.404;11.034;2023-03-11T05:00:19;2.58;;;0.90;;
75626;SDS011;67372;49.404;11.034;2023-03-11T05:02:46;1.05;;;0.60;;
75626;SDS011;67372;49.404;11.034;2023-03-11T05:05:12;1.23;;;0.65;;
75626;SDS011;67372;49.404;11.034;2023-03-11T05:07:38;1.00;;;0.60;;
75626;SDS011;67372;49.404;11.034;2023-03-11T05:10:05;2.60;;;0.70;;
75626;SDS011;67372;49.404;11.034;2023-03-11T05:12:32;2.97;;;0.65;;
75626;SDS011;67372;49.404;11.034;2023-03-11T05:14:58;2.13;;;0.98;;
75626;SDS011;67372;49.404;11.034;2023-03-11T05:17:25;1.48;;;0.82;;
75626;SDS011;67372;49.404;11.034;2023-03-11T05:19:51;2.20;;;0.80;;
75626;SDS011;67372;49.404;11.034;2023-03-11T05:22:18;2.55;;;0.90;;
75626;SDS011;67372;49.404;11.034;2023-03-11T05:24:45;0.82;;;0.70;;
75626;SDS011;67372;49.404;11.034;2023-03-11T05:27:12;0.90;;;0.65;;
75626;SDS011;67372;49.404;11.034;2023-03-11T05:29:39;2.35;;;0.85;;
75626;SDS011;67372;49.404;11.034;2023-03-11T05:32:05;2.42;;;0.60;;
75626;SDS011;67372;49.404;11.034;2023-03-11T05:34:32;1.33;;;0.50;;
75626;SDS011;67372;49.404;11.034;2023-03-11T05:36:58;2.85;;;1.08;;
75626;SDS011;67372;49.404;11.034;2023-03-11T05:39:28;1.27;;;0.77;;
75626;SDS011;67372;49.404;11.034;2023-03-11T05:41:54;1.45;;;0.63;;
75626;SDS011;67372;49.404;11.034;2023-03-11T05:44:21;1.98;;;1.10;;
75626;SDS011;67372;49.404;11.034;2023-03-11T05:46:47;2.20;;;1.23;;
75626;SDS011;67372;49.404;11.034;2023-03-11T05:49:14;1.55;;;1.00;;
75626;SDS011;67372;49.404;11.034;2023-03-11T05:51:40;1.15;;;0.73;;
75626;SDS011;67372;49.404;11.034;2023-03-11T05:54:07;1.02;;;0.75;;
75626;SDS011;67372;49.404;11.034;2023-03-11T05:56:33;1.40;;;0.77;;
75626;SDS011;67372;49.404;11.034;2023-03-11T05:59:00;1.92;;;1.10;;
75626;SDS011;67372;49.404;11.034;2023-03-11T06:01:26;3.13;;;1.40;;
75626;SDS011;67372;49.404;11.034;2023-03-11T06:03:52;3.25;;;1.42;;
75626;SDS011;67372;49.404;11.034;2023-03-11T06:06:19;1.40;;;1.05;;
75626;SDS011;67372;49.404;11.034;2023-03-11T06:08:45;1.85;;;1.30;;
75626;SDS011;67372;49.404;11.034;2023-03-11T06:11:11;3.13;;;1.38;;
75626;SDS011;67372;49.404;11.034;2023-03-11T06:13:38;1.42;;;0.70;;
75626;SDS011;67372;49.404;11.034;2023-03-11T06:16:04;1.80;;;1.25;;
75626;SDS011;67372;49.404;11.034;2023-03-11T06:18:31;2.50;;;1.42;;
75626;SDS011;67372;49.404;11.034;2023-03-11T06:20:58;1.75;;;1.52;;
75626;SDS011;67372;49.404;11.034;2023-03-11T06:28:25;1.92;;;1.38;;
75626;SDS011;67372;49.404;11.034;2023-03-11T06:30:52;2.78;;;1.58;;
75626;SDS011;67372;49.404;11.034;2023-03-11T06:33:18;2.05;;;0.98;;
75626;SDS011;67372;49.404;11.034;2023-03-11T06:35:54;3.17;;;1.55;;
75626;SDS011;67372;49.404;11.034;2023-03-11T06:38:21;2.92;;;1.27;;
75626;SDS011;67372;49.404;11.034;2023-03-11T06:40:47;2.33;;;1.00;;
75626;SDS011;67372;49.404;11.034;2023-03-11T06:43:14;1.20;;;0.90;;
75626;SDS011;67372;49.404;11.034;2023-03-11T06:45:40;2.45;;;1.40;;
75626;SDS011;67372;49.404;11.034;2023-03-11T06:48:07;2.50;;;1.33;;
75626;SDS011;67372;49.404;11.034;2023-03-11T06:50:33;3.65;;;1.70;;
75626;SDS011;67372;49.404;11.034;2023-03-11T06:52:59;8.88;;;1.52;;
75626;SDS011;67372;49.404;11.034;2023-03-11T06:55:26;3.33;;;1.55;;
75626;SDS011;67372;49.404;11.034;2023-03-11T06:57:52;1.95;;;1.13;;
75626;SDS011;67372;49.404;11.034;2023-03-11T07:00:18;1.63;;;0.90;;
75626;SDS011;67372;49.404;11.034;2023-03-11T07:02:45;2.03;;;1.10;;
75626;SDS011;67372;49.404;11.034;2023-03-11T07:05:11;2.53;;;1.65;;
75626;SDS011;67372;49.404;11.034;2023-03-11T07:07:37;2.40;;;1.25;;
75626;SDS011;67372;49.404;11.034;2023-03-11T07:10:04;2.03;;;1.45;;
75626;SDS011;67372;49.404;11.034;2023-03-11T07:12:31;3.55;;;1.40;;
75626;SDS011;67372;49.404;11.034;2023-03-11T07:14:57;2.47;;;1.15;;
75626;SDS011;67372;49.404;11.034;2023-03-11T07:17:24;3.58;;;1.23;;
75626;SDS011;67372;49.404;11.034;2023-03-11T07:19:51;1.60;;;1.10;;
75626;SDS011;67372;49.404;11.034;2023-03-11T07:22:18;2.50;;;1.30;;
75626;SDS011;67372;49.404;11.034;2023-03-11T07:24:46;1.17;;;0.90;;
75626;SDS011;67372;49.404;11.034;2023-03-11T07:27:13;2.92;;;1.60;;
75626;SDS011;67372;49.404;11.034;2023-03-11T07:29:40;3.20;;;1.23;;
75626;SDS011;67372;49.404;11.034;2023-03-11T07:32:07;2.42;;;1.15;;
75626;SDS011;67372;49.404;11.034;2023-03-11T07:34:33;2.13;;;1.08;;
75626;SDS011;67372;49.404;11.034;2023-03-11T07:37:00;1.83;;;1.20;;
75626;SDS011;67372;49.404;11.034;2023-03-11T07:39:27;3.30;;;1.38;;
75626;SDS011;67372;49.404;11.034;2023-03-11T07:41:53;3.58;;;1.67;;
75626;SDS011;67372;49.404;11.034;2023-03-11T07:44:19;2.38;;;1.33;;
75626;SDS011;67372;49.404;11.034;2023-03-11T07:46:46;2.97;;;1.20;;
75626;SDS011;67372;49.404;11.034;2023-03-11T07:49:12;1.92;;;1.13;;
75626;SDS011;67372;49.404;11.034;2023-03-11T07:51:39;3.97;;;1.70;;
75626;SDS011;67372;49.404;11.034;2023-03-11T07:54:05;2.67;;;1.60;;
75626;SDS011;67372;49.404;11.034;2023-03-11T07:56:33;4.00;;;1.27;;
75626;SDS011;67372;49.404;11.034;2023-03-11T07:59:00;2.05;;;1.25;;
75626;SDS011;67372;49.404;11.034;2023-03-11T08:01:29;2.38;;;1.17;;
75626;SDS011;67372;49.404;11.034;2023-03-11T08:03:56;4.10;;;1.30;;
75626;SDS011;67372;49.404;11.034;2023-03-11T08:06:27;2.38;;;1.60;;
75626;SDS011;67372;49.404;11.034;2023-03-11T08:11:30;3.78;;;1.30;;
75626;SDS011;67372;49.404;11.034;2023-03-11T08:13:56;2.75;;;1.40;;
75626;SDS011;67372;49.404;11.034;2023-03-11T08:16:23;2.60;;;1.60;;
75626;SDS011;67372;49.404;11.034;2023-03-11T08:21:19;3.13;;;1.30;;
75626;SDS011;67372;49.404;11.034;2023-03-11T08:23:47;3.08;;;1.75;;
75626;SDS011;67372;49.404;11.034;2023-03-11T08:26:14;2.55;;;1.20;;
75626;SDS011;67372;49.404;11.034;2023-03-11T08:28:43;2.70;;;1.17;;
75626;SDS011;67372;49.404;11.034;2023-03-11T08:33:40;2.15;;;1.40;;
75626;SDS011;67372;49.404;11.034;2023-03-11T08:36:07;2.05;;;1.50;;
75626;SDS011;67372;49.404;11.034;2023-03-11T08:38:33;2.80;;;1.77;;
75626;SDS011;67372;49.404;11.034;2023-03-11T08:41:00;2.30;;;1.80;;
75626;SDS011;67372;49.404;11.034;2023-03-11T08:43:26;1.75;;;0.80;;
75626;SDS011;67372;49.404;11.034;2023-03-11T08:45:53;2.78;;;1.60;;
75626;SDS011;67372;49.404;11.034;2023-03-11T08:48:19;2.10;;;1.42;;
75626;SDS011;67372;49.404;11.034;2023-03-11T08:50:46;2.10;;;0.80;;
75626;SDS011;67372;49.404;11.034;2023-03-11T08:53:19;1.58;;;1.15;;
75626;SDS011;67372;49.404;11.034;2023-03-11T08:55:47;3.13;;;1.10;;
75626;SDS011;67372;49.404;11.034;2023-03-11T08:58:15;2.78;;;1.00;;
75626;SDS011;67372;49.404;11.034;2023-03-11T09:00:41;2.42;;;1.15;;
75626;SDS011;67372;49.404;11.034;2023-03-11T09:03:07;1.38;;;0.98;;
75626;SDS011;67372;49.404;11.034;2023-03-11T09:05:34;1.77;;;1.20;;
75626;SDS011;67372;49.404;11.034;2023-03-11T09:08:01;1.80;;;1.17;;
75626;SDS011;67372;49.404;11.034;2023-03-11T09:10:30;2.30;;;1.10;;
75626;SDS011;67372;49.404;11.034;2023-03-11T09:12:57;1.75;;;0.80;;
75626;SDS011;67372;49.404;11.034;2023-03-11T09:15:23;1.27;;;1.10;;
75626;SDS011;67372;49.404;11.034;2023-03-11T09:17:49;2.53;;;1.00;;
75626;SDS011;67372;49.404;11.034;2023-03-11T09:20:16;2.60;;;1.30;;
75626;SDS011;67372;49.404;11.034;2023-03-11T09:22:42;2.40;;;1.13;;
75626;SDS011;67372;49.404;11.034;2023-03-11T09:25:09;2.15;;;1.10;;
75626;SDS011;67372;49.404;11.034;2023-03-11T09:27:37;2.40;;;1.30;;
75626;SDS011;67372;49.404;11.034;2023-03-11T09:30:04;2.42;;;1.50;;
75626;SDS011;67372;49.404;11.034;2023-03-11T09:32:30;3.35;;;1.33;;
75626;SDS011;67372;49.404;11.034;2023-03-11T09:34:57;1.42;;;0.90;;
75626;SDS011;67372;49.404;11.034;2023-03-11T09:37:23;1.55;;;1.10;;
75626;SDS011;67372;49.404;11.034;2023-03-11T09:39:50;3.08;;;1.10;;
75626;SDS011;67372;49.404;11.034;2023-03-11T09:42:18;1.58;;;1.00;;
75626;SDS011;67372;49.404;11.034;2023-03-11T09:44:58;1.20;;;0.88;;
75626;SDS011;67372;49.404;11.034;2023-03-11T09:47:44;1.55;;;1.17;;
75626;SDS011;67372;49.404;11.034;2023-03-11T09:50:28;2.08;;;1.42;;
75626;SDS011;67372;49.404;11.034;2023-03-11T09:55:48;1.60;;;0.95;;
75626;SDS011;67372;49.404;11.034;2023-03-11T09:58:27;2.70;;;1.27;;
75626;SDS011;67372;49.404;11.034;2023-03-11T10:01:01;1.80;;;1.20;;
75626;SDS011;67372;49.404;11.034;2023-03-11T10:03:35;1.55;;;1.20;;
75626;SDS011;67372;49.404;11.034;2023-03-11T10:06:15;3.60;;;1.30;;
75626;SDS011;67372;49.404;11.034;2023-03-11T10:08:45;1.40;;;1.10;;
75626;SDS011;67372;49.404;11.034;2023-03-11T10:16:36;1.88;;;0.80;;
75626;SDS011;67372;49.404;11.034;2023-03-11T10:19:17;1.65;;;1.13;;
75626;SDS011;67372;49.404;11.034;2023-03-11T10:27:09;3.88;;;1.38;;
75626;SDS011;67372;49.404;11.034;2023-03-11T10:29:51;2.08;;;1.33;;
75626;SDS011;67372;49.404;11.034;2023-03-11T10:32:27;2.03;;;1.23;;
75626;SDS011;67372;49.404;11.034;2023-03-11T10:35:14;3.80;;;1.30;;
75626;SDS011;67372;49.404;11.034;2023-03-11T10:37:53;2.45;;;0.75;;
75626;SDS011;67372;49.404;11.034;2023-03-11T10:40:28;2.72;;;1.10;;
75626;SDS011;67372;49.404;11.034;2023-03-11T10:43:13;1.73;;;0.82;;
75626;SDS011;67372;49.404;11.034;2023-03-11T10:45:44;1.75;;;0.90;;
75626;SDS011;67372;49.404;11.034;2023-03-11T10:48:13;1.38;;;0.70;;
75626;SDS011;67372;49.404;11.034;2023-03-11T10:50:49;1.08;;;0.65;;
75626;SDS011;67372;49.404;11.034;2023-03-11T10:53:19;1.77;;;0.80;;
75626;SDS011;67372;49.404;11.034;2023-03-11T10:55:50;1.45;;;1.08;;
75626;SDS011;67372;49.404;11.034;2023-03-11T10:58:26;1.70;;;1.20;;
75626;SDS011;67372;49.404;11.034;2023-03-11T11:03:42;2.08;;;1.33;;
75626;SDS011;67372;49.404;11.034;2023-03-11T11:06:20;2.40;;;1.40;;
75626;SDS011;67372;49.404;11.034;2023-03-11T11:09:02;1.95;;;1.23;;
75626;SDS011;67372;49.404;11.034;2023-03-11T11:11:30;2.72;;;1.23;;
75626;SDS011;67372;49.404;11.034;2023-03-11T11:13:57;2.03;;;1.25;;
75626;SDS011;67372;49.404;11.034;2023-03-11T11:19:08;2.67;;;1.48;;
75626;SDS011;67372;49.404;11.034;2023-03-11T11:21:42;2.33;;;1.17;;
75626;SDS011;67372;49.404;11.034;2023-03-11T11:24:19;3.10;;;1.60;;
75626;SDS011;67372;49.404;11.034;2023-03-11T11:29:41;1.73;;;1.00;;
75626;SDS011;67372;49.404;11.034;2023-03-11T11:34:40;2.20;;;1.40;;
75626;SDS011;67372;49.404;11.034;2023-03-11T11:37:10;3.45;;;1.30;;
75626;SDS011;67372;49.404;11.034;2023-03-11T11:39:45;2.17;;;1.20;;
75626;SDS011;67372;49.404;11.034;2023-03-11T11:42:15;2.15;;;1.20;;
75626;SDS011;67372;49.404;11.034;2023-03-11T11:44:43;1.88;;;1.23;;
75626;SDS011;67372;49.404;11.034;2023-03-11T11:47:17;3.40;;;1.20;;
75626;SDS011;67372;49.404;11.034;2023-03-11T11:49:50;2.53;;;1.15;;
75626;SDS011;67372;49.404;11.034;2023-03-11T11:52:30;3.60;;;1.55;;
75626;SDS011;67372;49.404;11.034;2023-03-11T11:55:01;2.10;;;1.25;;
75626;SDS011;67372;49.404;11.034;2023-03-11T11:57:31;1.35;;;0.70;;
75626;SDS011;67372;49.404;11.034;2023-03-11T11:59:58;2.40;;;0.95;;
75626;SDS011;67372;49.404;11.034;2023-03-11T12:05:27;1.55;;;0.77;;
75626;SDS011;67372;49.404;11.034;2023-03-11T12:08:02;2.70;;;1.38;;
75626;SDS011;67372;49.404;11.034;2023-03-11T12:21:32;2.53;;;1.10;;
75626;SDS011;67372;49.404;11.034;2023-03-11T12:24:12;4.22;;;1.30;;
75626;SDS011;67372;49.404;11.034;2023-03-11T12:26:57;1.92;;;1.10;;
75626;SDS011;67372;49.404;11.034;2023-03-11T12:29:29;1.80;;;1.00;;
75626;SDS011;67372;49.404;11.034;2023-03-11T12:31:59;2.58;;;1.10;;
75626;SDS011;67372;49.404;11.034;2023-03-11T12:34:27;3.50;;;1.10;;
75626;SDS011;67372;49.404;11.034;2023-03-11T12:36:59;2.13;;;1.02;;
75626;SDS011;67372;49.404;11.034;2023-03-11T12:39:27;1.40;;;0.80;;
75626;SDS011;67372;49.404;11.034;2023-03-11T12:44:44;2.45;;;1.33;;
75626;SDS011;67372;49.404;11.034;2023-03-11T12:49:38;3.85;;;1.92;;
75626;SDS011;67372;49.404;11.034;2023-03-11T12:54:43;3.28;;;1.30;;
75626;SDS011;67372;49.404;11.034;2023-03-11T13:11:32;2.88;;;1.45;;
75626;SDS011;67372;49.404;11.034;2023-03-11T13:14:19;2.90;;;1.30;;
75626;SDS011;67372;49.404;11.034;2023-03-11T13:16:51;3.03;;;1.45;;
75626;SDS011;67372;49.404;11.034;2023-03-11T13:19:31;4.32;;;1.42;;
75626;SDS011;67372;49.404;11.034;2023-03-11T13:22:00;3.33;;;1.83;;
75626;SDS011;67372;49.404;11.034;2023-03-11T13:26:55;2.58;;;1.30;;
75626;SDS011;67372;49.404;11.034;2023-03-11T13:29:42;1.92;;;1.13;;
75626;SDS011;67372;49.404;11.034;2023-03-11T13:38:12;3.53;;;1.30;;
75626;SDS011;67372;49.404;11.034;2023-03-11T13:40:49;3.75;;;1.40;;
75626;SDS011;67372;49.404;11.034;2023-03-11T13:45:50;2.00;;;1.08;;
75626;SDS011;67372;49.404;11.034;2023-03-11T13:48:21;1.70;;;1.02;;
75626;SDS011;67372;49.404;11.034;2023-03-11T13:51:01;3.03;;;2.15;;
75626;SDS011;67372;49.404;11.034;2023-03-11T13:53:33;3.22;;;1.50;;
75626;SDS011;67372;49.404;11.034;2023-03-11T13:56:04;2.42;;;1.70;;
75626;SDS011;67372;49.404;11.034;2023-03-11T13:58:31;2.97;;;2.10;;
75626;SDS011;67372;49.404;11.034;2023-03-11T14:00:58;2.83;;;1.55;;
75626;SDS011;67372;49.404;11.034;2023-03-11T14:03:27;2.72;;;1.58;;
75626;SDS011;67372;49.404;11.034;2023-03-11T14:06:02;3.85;;;1.70;;
75626;SDS011;67372;49.404;11.034;2023-03-11T14:08:32;1.75;;;1.10;;
75626;SDS011;67372;49.404;11.034;2023-03-11T14:11:13;2.80;;;1.25;;
75626;SDS011;67372;49.404;11.034;2023-03-11T14:13:43;2.58;;;1.52;;
75626;SDS011;67372;49.404;11.034;2023-03-11T14:16:18;2.60;;;1.30;;
75626;SDS011;67372;49.404;11.034;2023-03-11T14:18:47;4.07;;;1.63;;
75626;SDS011;67372;49.404;11.034;2023-03-11T14:21:28;2.78;;;1.70;;
75626;SDS011;67372;49.404;11.034;2023-03-11T14:23:54;3.35;;;1.65;;
75626;SDS011;67372;49.404;11.034;2023-03-11T14:26:22;2.67;;;1.80;;
75626;SDS011;67372;49.404;11.034;2023-03-11T14:28:53;2.60;;;1.25;;
75626;SDS011;67372;49.404;11.034;2023-03-11T14:31:29;2.80;;;1.40;;
75626;SDS011;67372;49.404;11.034;2023-03-11T14:34:09;4.32;;;1.40;;
75626;SDS011;67372;49.404;11.034;2023-03-11T14:36:44;2.60;;;1.33;;
75626;SDS011;67372;49.404;11.034;2023-03-11T14:41:57;2.00;;;1.40;;
75626;SDS011;67372;49.404;11.034;2023-03-11T14:44:29;1.83;;;1.23;;
75626;SDS011;67372;49.404;11.034;2023-03-11T14:47:03;1.63;;;0.88;;
75626;SDS011;67372;49.404;11.034;2023-03-11T14:49:34;1.30;;;1.00;;
75626;SDS011;67372;49.404;11.034;2023-03-11T14:52:02;3.55;;;1.70;;
75626;SDS011;67372;49.404;11.034;2023-03-11T14:54:33;4.38;;;1.88;;
75626;SDS011;67372;49.404;11.034;2023-03-11T14:57:03;2.50;;;1.50;;
75626;SDS011;67372;49.404;11.034;2023-03-11T14:59:33;2.42;;;1.08;;
75626;SDS011;67372;49.404;11.034;2023-03-11T15:02:18;4.05;;;1.48;;
75626;SDS011;67372;49.404;11.034;2023-03-11T15:05:04;3.05;;;1.55;;
75626;SDS011;67372;49.404;11.034;2023-03-11T15:07:39;2.95;;;1.70;;
75626;SDS011;67372;49.404;11.034;2023-03-11T15:10:06;4.30;;;1.52;;
75626;SDS011;67372;49.404;11.034;2023-03-11T15:12:36;3.42;;;1.63;;
75626;SDS011;67372;49.404;11.034;2023-03-11T15:15:23;4.32;;;1.52;;
75626;SDS011;67372;49.404;11.034;2023-03-11T15:17:52;1.83;;;1.20;;
75626;SDS011;67372;49.404;11.034;2023-03-11T15:20:27;6.28;;;1.83;;
75626;SDS011;67372;49.404;11.034;2023-03-11T15:22:57;2.97;;;1.67;;
75626;SDS011;67372;49.404;11.034;2023-03-11T15:25:27;3.83;;;1.55;;
75626;SDS011;67372;49.404;11.034;2023-03-11T15:27:56;2.50;;;1.67;;
75626;SDS011;67372;49.404;11.034;2023-03-11T15:30:24;3.17;;;1.83;;
75626;SDS011;67372;49.404;11.034;2023-03-11T15:32:50;4.22;;;1.90;;
75626;SDS011;67372;49.404;11.034;2023-03-11T15:35:18;3.72;;;1.90;;
75626;SDS011;67372;49.404;11.034;2023-03-11T15:37:50;2.95;;;1.45;;
75626;SDS011;67372;49.404;11.034;2023-03-11T15:40:36;2.47;;;1.50;;
75626;SDS011;67372;49.404;11.034;2023-03-11T15:45:40;2.97;;;1.63;;
75626;SDS011;67372;49.404;11.034;2023-03-11T15:48:08;3.10;;;1.30;;
75626;SDS011;67372;49.404;11.034;2023-03-11T15:50:35;5.53;;;1.70;;
75626;SDS011;67372;49.404;11.034;2023-03-11T15:53:19;6.10;;;2.38;;
75626;SDS011;67372;49.404;11.034;2023-03-11T15:55:46;3.47;;;2.05;;
75626;SDS011;67372;49.404;11.034;2023-03-11T15:58:14;7.68;;;2.97;;
75626;SDS011;67372;49.404;11.034;2023-03-11T16:00:44;6.07;;;2.35;;
75626;SDS011;67372;49.404;11.034;2023-03-11T16:03:22;4.82;;;2.20;;
75626;SDS011;67372;49.404;11.034;2023-03-11T16:05:49;2.92;;;1.52;;
75626;SDS011;67372;49.404;11.034;2023-03-11T16:08:15;3.40;;;1.58;;
75626;SDS011;67372;49.404;11.034;2023-03-11T16:10:42;3.78;;;1.70;;
75626;SDS011;67372;49.404;11.034;2023-03-11T16:13:09;3.55;;;1.77;;
75626;SDS011;67372;49.404;11.034;2023-03-11T16:15:37;4.55;;;1.90;;
75626;SDS011;67372;49.404;11.034;2023-03-11T16:18:04;3.05;;;1.70;;
75626;SDS011;67372;49.404;11.034;2023-03-11T16:20:36;5.07;;;2.13;;